sensor_id;sensor_type;location;lat;lon;timestamp;pressure;altitude;pressure_sealevel;temperature;humidity
54554;BME280;40450;55.848;-3.572;2023-03-08T00:01:02;97689.18;;;-1.85;59.77
54554;BME280;40450;55.848;-3.572;2023-03-08T00:03:32;97686.67;;;-2.20;60.70
54554;BME280;40450;55.848;-3.572;2023-03-08T00:06:03;97685.56;;;-1.82;60.19
54554;BME280;40450;55.848;-3.572;2023-03-08T00:08:34;97686.56;;;-1.59;59.55
54554;BME280;40450;55.848;-3.572;2023-03-08T00:11:05;97683.63;;;-1.01;58.84
54554;BME280;40450;55.848;-3.572;2023-03-08T00:13:35;97682.68;;;-0.57;57.49
54554;BME280;40450;55.848;-3.572;2023-03-08T00:16:07;97677.50;;;-1.39;57.72
54554;BME280;40450;55.848;-3.572;2023-03-08T00:18:36;97673.94;;;-2.12;59.26
54554;BME280;40450;55.848;-3.572;2023-03-08T00:21:08;97670.61;;;-2.16;59.42
54554;BME280;40450;55.848;-3.572;2023-03-08T00:23:37;97672.54;;;-2.58;60.55
54554;BME280;40450;55.848;-3.572;2023-03-08T00:26:07;97671.56;;;-2.79;61.05
54554;BME280;40450;55.848;-3.572;2023-03-08T00:28:38;97669.99;;;-2.61;61.35
54554;BME280;40450;55.848;-3.572;2023-03-08T00:31:10;97669.84;;;-2.56;61.44
54554;BME280;40450;55.848;-3.572;2023-03-08T00:33:39;97667.44;;;-2.16;60.57
54554;BME280;40450;55.848;-3.572;2023-03-08T00:36:13;97671.89;;;-3.26;62.28
54554;BME280;40450;55.848;-3.572;2023-03-08T00:38:46;97671.97;;;-3.44;63.11
54554;BME280;40450;55.848;-3.572;2023-03-08T00:41:11;97671.01;;;-3.68;64.10
54554;BME280;40450;55.848;-3.572;2023-03-08T00:43:41;97672.83;;;-4.20;65.26
54554;BME280;40450;55.848;-3.572;2023-03-08T00:46:12;97666.82;;;-4.03;65.16
54554;BME280;40450;55.848;-3.572;2023-03-08T00:48:42;97666.49;;;-3.67;64.61
54554;BME280;40450;55.848;-3.572;2023-03-08T00:51:15;97662.66;;;-3.82;64.65
54554;BME280;40450;55.848;-3.572;2023-03-08T00:53:43;97662.96;;;-3.11;63.31
54554;BME280;40450;55.848;-3.572;2023-03-08T00:56:14;97660.82;;;-3.02;63.18
54554;BME280;40450;55.848;-3.572;2023-03-08T00:58:45;97657.83;;;-2.58;62.09
54554;BME280;40450;55.848;-3.572;2023-03-08T01:01:17;97659.75;;;-2.22;61.04
54554;BME280;40450;55.848;-3.572;2023-03-08T01:03:46;97655.68;;;-2.21;61.31
54554;BME280;40450;55.848;-3.572;2023-03-08T01:06:16;97654.27;;;-3.15;62.94
54554;BME280;40450;55.848;-3.572;2023-03-08T01:08:47;97646.07;;;-2.49;62.61
54554;BME280;40450;55.848;-3.572;2023-03-08T01:11:20;97641.96;;;-2.10;61.50
54554;BME280;40450;55.848;-3.572;2023-03-08T01:13:49;97642.62;;;-2.16;60.96
54554;BME280;40450;55.848;-3.572;2023-03-08T01:16:21;97642.86;;;-1.90;60.66
54554;BME280;40450;55.848;-3.572;2023-03-08T01:18:50;97640.99;;;-1.72;60.27
54554;BME280;40450;55.848;-3.572;2023-03-08T01:21:20;97639.73;;;-1.66;59.73
54554;BME280;40450;55.848;-3.572;2023-03-08T01:23:50;97639.77;;;-1.64;59.83
54554;BME280;40450;55.848;-3.572;2023-03-08T01:26:23;97639.60;;;-1.51;59.32
54554;BME280;40450;55.848;-3.572;2023-03-08T01:28:52;97637.62;;;-1.87;59.37
54554;BME280;40450;55.848;-3.572;2023-03-08T01:31:24;97638.68;;;-1.55;58.66
54554;BME280;40450;55.848;-3.572;2023-03-08T01:33:53;97635.80;;;-1.59;58.74
54554;BME280;40450;55.848;-3.572;2023-03-08T01:36:25;97635.69;;;-0.93;59.01
54554;BME280;40450;55.848;-3.572;2023-03-08T01:38:54;97632.42;;;-0.52;58.21
54554;BME280;40450;55.848;-3.572;2023-03-08T01:41:26;97627.48;;;-0.43;56.83
54554;BME280;40450;55.848;-3.572;2023-03-08T01:43:55;97626.76;;;0.11;57.93
54554;BME280;40450;55.848;-3.572;2023-03-08T01:46:27;97625.59;;;0.00;55.83
54554;BME280;40450;55.848;-3.572;2023-03-08T01:49:02;97625.68;;;-0.07;55.56
54554;BME280;40450;55.848;-3.572;2023-03-08T01:51:33;97618.02;;;0.11;55.74
54554;BME280;40450;55.848;-3.572;2023-03-08T01:53:58;97610.79;;;-0.42;55.54
54554;BME280;40450;55.848;-3.572;2023-03-08T01:56:28;97611.08;;;-0.20;56.14
54554;BME280;40450;55.848;-3.572;2023-03-08T01:58:59;97606.33;;;0.22;56.46
54554;BME280;40450;55.848;-3.572;2023-03-08T02:01:30;97603.96;;;0.54;56.34
54554;BME280;40450;55.848;-3.572;2023-03-08T02:04:00;97599.81;;;0.64;54.55
54554;BME280;40450;55.848;-3.572;2023-03-08T02:06:30;97597.53;;;0.90;55.32
54554;BME280;40450;55.848;-3.572;2023-03-08T02:09:01;97593.87;;;0.92;53.36
54554;BME280;40450;55.848;-3.572;2023-03-08T02:11:32;97598.29;;;0.11;53.89
54554;BME280;40450;55.848;-3.572;2023-03-08T02:14:03;97598.47;;;-0.73;55.09
54554;BME280;40450;55.848;-3.572;2023-03-08T02:16:32;97599.65;;;-0.53;55.15
54554;BME280;40450;55.848;-3.572;2023-03-08T02:19:05;97593.14;;;-0.18;55.16
54554;BME280;40450;55.848;-3.572;2023-03-08T02:21:34;97589.41;;;0.12;55.17
54554;BME280;40450;55.848;-3.572;2023-03-08T02:24:06;97580.54;;;0.54;54.90
54554;BME280;40450;55.848;-3.572;2023-03-08T02:26:36;97575.99;;;0.85;54.67
54554;BME280;40450;55.848;-3.572;2023-03-08T02:29:05;97573.57;;;0.99;53.76
54554;BME280;40450;55.848;-3.572;2023-03-08T02:31:36;97567.89;;;0.87;52.57
54554;BME280;40450;55.848;-3.572;2023-03-08T02:34:06;97569.56;;;1.05;53.48
54554;BME280;40450;55.848;-3.572;2023-03-08T02:36:37;97570.78;;;0.96;52.23
54554;BME280;40450;55.848;-3.572;2023-03-08T02:39:07;97569.65;;;0.77;52.85
54554;BME280;40450;55.848;-3.572;2023-03-08T02:41:38;97564.53;;;0.60;51.61
54554;BME280;40450;55.848;-3.572;2023-03-08T02:44:08;97564.54;;;0.45;52.22
54554;BME280;40450;55.848;-3.572;2023-03-08T02:46:39;97563.87;;;0.48;52.79
54554;BME280;40450;55.848;-3.572;2023-03-08T02:49:09;97562.30;;;0.60;52.59
54554;BME280;40450;55.848;-3.572;2023-03-08T02:51:40;97561.00;;;0.10;51.73
54554;BME280;40450;55.848;-3.572;2023-03-08T02:54:11;97558.92;;;0.01;52.16
54554;BME280;40450;55.848;-3.572;2023-03-08T02:56:41;97563.26;;;-0.58;53.32
54554;BME280;40450;55.848;-3.572;2023-03-08T02:59:11;97557.92;;;-0.27;53.22
54554;BME280;40450;55.848;-3.572;2023-03-08T03:01:42;97555.39;;;-0.32;53.21
54554;BME280;40450;55.848;-3.572;2023-03-08T03:04:13;97549.45;;;0.04;53.45
54554;BME280;40450;55.848;-3.572;2023-03-08T03:06:44;97545.21;;;0.31;52.98
54554;BME280;40450;55.848;-3.572;2023-03-08T03:09:14;97546.43;;;0.20;52.25
54554;BME280;40450;55.848;-3.572;2023-03-08T03:11:44;97542.67;;;0.29;52.69
54554;BME280;40450;55.848;-3.572;2023-03-08T03:14:15;97545.83;;;0.36;52.54
54554;BME280;40450;55.848;-3.572;2023-03-08T03:16:45;97548.21;;;0.11;53.02
54554;BME280;40450;55.848;-3.572;2023-03-08T03:19:17;97547.33;;;0.38;52.29
54554;BME280;40450;55.848;-3.572;2023-03-08T03:21:47;97540.07;;;0.32;52.66
54554;BME280;40450;55.848;-3.572;2023-03-08T03:24:17;97541.15;;;0.51;52.87
54554;BME280;40450;55.848;-3.572;2023-03-08T03:26:49;97538.74;;;0.29;52.20
54554;BME280;40450;55.848;-3.572;2023-03-08T03:29:24;97543.31;;;-0.65;52.92
54554;BME280;40450;55.848;-3.572;2023-03-08T03:31:49;97550.13;;;-1.17;53.78
54554;BME280;40450;55.848;-3.572;2023-03-08T03:34:19;97544.28;;;-0.94;53.37
54554;BME280;40450;55.848;-3.572;2023-03-08T03:36:50;97537.20;;;-0.47;54.06
54554;BME280;40450;55.848;-3.572;2023-03-08T03:39:21;97533.23;;;-0.34;53.10
54554;BME280;40450;55.848;-3.572;2023-03-08T03:41:51;97538.22;;;-1.15;53.93
54554;BME280;40450;55.848;-3.572;2023-03-08T03:44:22;97542.23;;;-1.19;53.93
54554;BME280;40450;55.848;-3.572;2023-03-08T03:46:53;97541.87;;;-1.48;54.39
54554;BME280;40450;55.848;-3.572;2023-03-08T03:49:25;97536.76;;;-1.09;54.21
54554;BME280;40450;55.848;-3.572;2023-03-08T03:51:54;97537.03;;;-1.27;54.29
54554;BME280;40450;55.848;-3.572;2023-03-08T03:54:24;97539.65;;;-2.21;56.79
54554;BME280;40450;55.848;-3.572;2023-03-08T03:56:55;97539.52;;;-2.31;57.17
54554;BME280;40450;55.848;-3.572;2023-03-08T03:59:26;97538.45;;;-1.73;56.32
54554;BME280;40450;55.848;-3.572;2023-03-08T04:01:56;97534.40;;;-1.55;56.17
54554;BME280;40450;55.848;-3.572;2023-03-08T04:04:27;97530.09;;;-2.36;57.73
54554;BME280;40450;55.848;-3.572;2023-03-08T04:06:57;97531.16;;;-2.57;58.02
54554;BME280;40450;55.848;-3.572;2023-03-08T04:09:27;97529.30;;;-2.86;58.52
54554;BME280;40450;55.848;-3.572;2023-03-08T04:11:58;97526.61;;;-2.33;57.67
54554;BME280;40450;55.848;-3.572;2023-03-08T04:14:29;97524.60;;;-2.73;58.42
54554;BME280;40450;55.848;-3.572;2023-03-08T04:16:59;97529.95;;;-2.68;58.17
54554;BME280;40450;55.848;-3.572;2023-03-08T04:19:30;97526.11;;;-2.69;58.58
54554;BME280;40450;55.848;-3.572;2023-03-08T04:22:00;97523.06;;;-2.22;57.89
54554;BME280;40450;55.848;-3.572;2023-03-08T04:24:31;97522.02;;;-1.63;57.51
54554;BME280;40450;55.848;-3.572;2023-03-08T04:27:02;97523.83;;;-1.40;56.78
54554;BME280;40450;55.848;-3.572;2023-03-08T04:29:33;97528.37;;;-1.73;56.30
54554;BME280;40450;55.848;-3.572;2023-03-08T04:32:03;97529.59;;;-2.19;57.15
54554;BME280;40450;55.848;-3.572;2023-03-08T04:34:33;97519.77;;;-2.10;57.43
54554;BME280;40450;55.848;-3.572;2023-03-08T04:37:04;97520.31;;;-2.69;58.30
54554;BME280;40450;55.848;-3.572;2023-03-08T04:39:35;97514.54;;;-2.52;58.06
54554;BME280;40450;55.848;-3.572;2023-03-08T04:42:06;97510.57;;;-2.87;58.43
54554;BME280;40450;55.848;-3.572;2023-03-08T04:44:36;97503.21;;;-2.93;58.52
54554;BME280;40450;55.848;-3.572;2023-03-08T04:47:06;97501.30;;;-2.80;58.54
54554;BME280;40450;55.848;-3.572;2023-03-08T04:49:37;97505.04;;;-3.25;59.66
54554;BME280;40450;55.848;-3.572;2023-03-08T04:52:07;97506.42;;;-3.34;59.74
54554;BME280;40450;55.848;-3.572;2023-03-08T04:54:38;97502.02;;;-3.56;60.14
54554;BME280;40450;55.848;-3.572;2023-03-08T04:57:08;97503.58;;;-3.36;59.79
54554;BME280;40450;55.848;-3.572;2023-03-08T04:59:39;97502.54;;;-3.28;59.52
54554;BME280;40450;55.848;-3.572;2023-03-08T05:02:10;97503.65;;;-3.10;59.31
54554;BME280;40450;55.848;-3.572;2023-03-08T05:04:41;97507.66;;;-3.41;59.63
54554;BME280;40450;55.848;-3.572;2023-03-08T05:07:11;97506.79;;;-3.63;59.92
54554;BME280;40450;55.848;-3.572;2023-03-08T05:09:42;97509.22;;;-3.23;59.88
54554;BME280;40450;55.848;-3.572;2023-03-08T05:12:12;97508.80;;;-3.21;59.47
54554;BME280;40450;55.848;-3.572;2023-03-08T05:14:43;97509.51;;;-4.07;61.00
54554;BME280;40450;55.848;-3.572;2023-03-08T05:17:14;97506.59;;;-4.46;62.31
54554;BME280;40450;55.848;-3.572;2023-03-08T05:19:44;97508.55;;;-3.43;61.50
54554;BME280;40450;55.848;-3.572;2023-03-08T05:22:14;97507.39;;;-2.49;60.69
54554;BME280;40450;55.848;-3.572;2023-03-08T05:24:45;97502.78;;;-1.97;58.63
54554;BME280;40450;55.848;-3.572;2023-03-08T05:27:15;97502.55;;;-2.38;57.62
54554;BME280;40450;55.848;-3.572;2023-03-08T05:29:47;97499.88;;;-2.91;58.11
54554;BME280;40450;55.848;-3.572;2023-03-08T05:32:17;97497.01;;;-2.89;58.78
54554;BME280;40450;55.848;-3.572;2023-03-08T05:34:47;97501.22;;;-2.25;58.71
54554;BME280;40450;55.848;-3.572;2023-03-08T05:37:18;97499.04;;;-3.18;58.73
54554;BME280;40450;55.848;-3.572;2023-03-08T05:39:49;97500.54;;;-4.20;61.03
54554;BME280;40450;55.848;-3.572;2023-03-08T05:42:19;97497.89;;;-4.51;62.15
54554;BME280;40450;55.848;-3.572;2023-03-08T05:44:49;97497.84;;;-3.76;61.03
54554;BME280;40450;55.848;-3.572;2023-03-08T05:47:20;97499.33;;;-3.83;61.32
54554;BME280;40450;55.848;-3.572;2023-03-08T05:49:51;97495.56;;;-3.27;60.68
54554;BME280;40450;55.848;-3.572;2023-03-08T05:52:21;97492.66;;;-2.91;60.33
54554;BME280;40450;55.848;-3.572;2023-03-08T05:54:52;97494.23;;;-2.41;59.48
54554;BME280;40450;55.848;-3.572;2023-03-08T05:57:23;97499.76;;;-1.85;58.72
54554;BME280;40450;55.848;-3.572;2023-03-08T06:00:00;97497.11;;;-1.26;58.41
54554;BME280;40450;55.848;-3.572;2023-03-08T06:02:24;97493.30;;;-1.01;58.06
54554;BME280;40450;55.848;-3.572;2023-03-08T06:04:55;97492.35;;;-0.79;57.52
54554;BME280;40450;55.848;-3.572;2023-03-08T06:07:25;97492.76;;;-0.47;56.59
54554;BME280;40450;55.848;-3.572;2023-03-08T06:09:55;97493.20;;;-0.40;55.15
54554;BME280;40450;55.848;-3.572;2023-03-08T06:12:27;97490.35;;;-0.46;55.00
54554;BME280;40450;55.848;-3.572;2023-03-08T06:14:56;97491.72;;;-0.27;56.16
54554;BME280;40450;55.848;-3.572;2023-03-08T06:17:27;97493.83;;;-0.17;55.24
54554;BME280;40450;55.848;-3.572;2023-03-08T06:19:58;97495.13;;;-0.06;54.65
54554;BME280;40450;55.848;-3.572;2023-03-08T06:22:28;97493.55;;;-0.95;53.19
54554;BME280;40450;55.848;-3.572;2023-03-08T06:24:59;97491.49;;;-1.90;54.98
54554;BME280;40450;55.848;-3.572;2023-03-08T06:27:29;97488.99;;;-2.04;55.53
54554;BME280;40450;55.848;-3.572;2023-03-08T06:30:02;97492.00;;;-2.20;55.75
54554;BME280;40450;55.848;-3.572;2023-03-08T06:32:31;97494.14;;;-2.46;56.80
54554;BME280;40450;55.848;-3.572;2023-03-08T06:35:01;97497.13;;;-2.74;57.38
54554;BME280;40450;55.848;-3.572;2023-03-08T06:37:32;97499.91;;;-3.47;58.44
54554;BME280;40450;55.848;-3.572;2023-03-08T06:40:03;97502.65;;;-4.37;60.85
54554;BME280;40450;55.848;-3.572;2023-03-08T06:42:34;97499.99;;;-4.14;60.41
54554;BME280;40450;55.848;-3.572;2023-03-08T06:45:04;97504.00;;;-4.40;61.14
54554;BME280;40450;55.848;-3.572;2023-03-08T06:47:34;97500.22;;;-3.94;60.54
54554;BME280;40450;55.848;-3.572;2023-03-08T06:50:06;97501.34;;;-3.52;59.95
54554;BME280;40450;55.848;-3.572;2023-03-08T06:52:35;97501.68;;;-3.54;60.00
54554;BME280;40450;55.848;-3.572;2023-03-08T06:55:08;97502.60;;;-2.72;59.46
54554;BME280;40450;55.848;-3.572;2023-03-08T06:57:36;97500.54;;;-2.58;58.42
54554;BME280;40450;55.848;-3.572;2023-03-08T07:00:08;97500.80;;;-2.37;58.49
54554;BME280;40450;55.848;-3.572;2023-03-08T07:02:38;97504.89;;;-1.89;58.94
54554;BME280;40450;55.848;-3.572;2023-03-08T07:05:09;97507.05;;;-1.56;57.38
54554;BME280;40450;55.848;-3.572;2023-03-08T07:07:39;97504.52;;;-1.14;57.62
54554;BME280;40450;55.848;-3.572;2023-03-08T07:10:12;97502.20;;;-1.17;56.70
54554;BME280;40450;55.848;-3.572;2023-03-08T07:12:41;97496.55;;;-0.84;56.69
54554;BME280;40450;55.848;-3.572;2023-03-08T07:15:11;97499.08;;;-1.02;55.42
54554;BME280;40450;55.848;-3.572;2023-03-08T07:17:42;97496.99;;;-0.84;55.90
54554;BME280;40450;55.848;-3.572;2023-03-08T07:20:14;97496.61;;;-0.78;54.44
54554;BME280;40450;55.848;-3.572;2023-03-08T07:22:48;97496.37;;;-0.64;55.64
54554;BME280;40450;55.848;-3.572;2023-03-08T07:25:15;97500.96;;;-0.61;54.52
54554;BME280;40450;55.848;-3.572;2023-03-08T07:27:43;97501.15;;;-1.70;55.47
54554;BME280;40450;55.848;-3.572;2023-03-08T07:30:15;97499.22;;;-2.33;56.89
54554;BME280;40450;55.848;-3.572;2023-03-08T07:32:45;97499.72;;;-3.01;58.99
54554;BME280;40450;55.848;-3.572;2023-03-08T07:35:15;97503.98;;;-3.00;58.99
54554;BME280;40450;55.848;-3.572;2023-03-08T07:37:46;97504.41;;;-2.33;58.52
54554;BME280;40450;55.848;-3.572;2023-03-08T07:40:17;97507.92;;;-1.77;58.04
54554;BME280;40450;55.848;-3.572;2023-03-08T07:42:47;97505.06;;;-1.35;57.45
54554;BME280;40450;55.848;-3.572;2023-03-08T07:45:17;97505.50;;;-1.20;57.11
54554;BME280;40450;55.848;-3.572;2023-03-08T07:47:50;97505.77;;;-1.25;57.37
54554;BME280;40450;55.848;-3.572;2023-03-08T07:50:18;97510.44;;;-1.58;57.31
54554;BME280;40450;55.848;-3.572;2023-03-08T07:52:49;97511.66;;;-1.62;57.66
54554;BME280;40450;55.848;-3.572;2023-03-08T07:55:20;97512.35;;;-1.28;58.18
54554;BME280;40450;55.848;-3.572;2023-03-08T07:57:51;97508.94;;;-0.87;58.03
54554;BME280;40450;55.848;-3.572;2023-03-08T08:00:22;97506.52;;;-0.31;57.70
54554;BME280;40450;55.848;-3.572;2023-03-08T08:02:51;97511.29;;;0.01;57.04
54554;BME280;40450;55.848;-3.572;2023-03-08T08:05:23;97509.01;;;0.48;56.35
54554;BME280;40450;55.848;-3.572;2023-03-08T08:07:54;97506.75;;;0.69;55.24
54554;BME280;40450;55.848;-3.572;2023-03-08T08:10:23;97505.83;;;0.87;55.80
54554;BME280;40450;55.848;-3.572;2023-03-08T08:12:54;97506.72;;;0.73;54.83
54554;BME280;40450;55.848;-3.572;2023-03-08T08:15:24;97507.28;;;0.98;55.10
54554;BME280;40450;55.848;-3.572;2023-03-08T08:17:55;97507.52;;;1.19;55.30
54554;BME280;40450;55.848;-3.572;2023-03-08T08:20:26;97506.05;;;1.37;55.12
54554;BME280;40450;55.848;-3.572;2023-03-08T08:22:56;97509.48;;;1.56;54.98
54554;BME280;40450;55.848;-3.572;2023-03-08T08:25:27;97510.58;;;1.70;54.86
54554;BME280;40450;55.848;-3.572;2023-03-08T08:27:57;97511.83;;;0.81;54.59
54554;BME280;40450;55.848;-3.572;2023-03-08T08:30:33;97518.30;;;-2.67;61.00
54554;BME280;40450;55.848;-3.572;2023-03-08T08:32:58;97519.09;;;-0.99;58.87
54554;BME280;40450;55.848;-3.572;2023-03-08T08:35:29;97520.68;;;-1.40;59.61
54554;BME280;40450;55.848;-3.572;2023-03-08T08:38:00;97515.44;;;0.47;57.00
54554;BME280;40450;55.848;-3.572;2023-03-08T08:40:30;97514.00;;;0.72;57.49
54554;BME280;40450;55.848;-3.572;2023-03-08T08:43:01;97516.39;;;-0.41;58.28
54554;BME280;40450;55.848;-3.572;2023-03-08T08:45:31;97514.07;;;0.03;57.90
54554;BME280;40450;55.848;-3.572;2023-03-08T08:48:02;97523.55;;;-2.85;63.55
54554;BME280;40450;55.848;-3.572;2023-03-08T08:50:32;97524.35;;;-3.36;64.95
54554;BME280;40450;55.848;-3.572;2023-03-08T08:53:03;97525.03;;;-0.88;61.27
54554;BME280;40450;55.848;-3.572;2023-03-08T08:55:33;97515.81;;;0.60;59.49
54554;BME280;40450;55.848;-3.572;2023-03-08T08:58:05;97512.19;;;1.24;58.69
54554;BME280;40450;55.848;-3.572;2023-03-08T09:00:35;97512.38;;;1.40;57.48
54554;BME280;40450;55.848;-3.572;2023-03-08T09:03:06;97517.70;;;-0.11;57.79
54554;BME280;40450;55.848;-3.572;2023-03-08T09:05:39;97521.12;;;-4.50;67.70
54554;BME280;40450;55.848;-3.572;2023-03-08T09:08:06;97528.23;;;-6.85;73.93
54554;BME280;40450;55.848;-3.572;2023-03-08T09:10:42;97525.58;;;-3.37;67.18
54554;BME280;40450;55.848;-3.572;2023-03-08T09:13:09;97528.86;;;-2.03;64.88
54554;BME280;40450;55.848;-3.572;2023-03-08T09:15:38;97542.45;;;-7.10;75.16
54554;BME280;40450;55.848;-3.572;2023-03-08T09:18:08;97543.35;;;-9.74;82.86
54554;BME280;40450;55.848;-3.572;2023-03-08T09:20:39;97541.89;;;-9.12;82.01
54554;BME280;40450;55.848;-3.572;2023-03-08T09:23:09;97543.98;;;-8.48;81.54
54554;BME280;40450;55.848;-3.572;2023-03-08T09:25:40;97544.16;;;-7.97;80.98
54554;BME280;40450;55.848;-3.572;2023-03-08T09:28:11;97542.90;;;-10.38;85.58
54554;BME280;40450;55.848;-3.572;2023-03-08T09:30:41;97541.42;;;-10.56;86.64
54554;BME280;40450;55.848;-3.572;2023-03-08T09:33:12;97534.94;;;-9.51;85.36
54554;BME280;40450;55.848;-3.572;2023-03-08T09:35:43;97526.59;;;-4.81;77.66
54554;BME280;40450;55.848;-3.572;2023-03-08T09:38:13;97538.60;;;-7.32;80.36
54554;BME280;40450;55.848;-3.572;2023-03-08T09:40:51;97534.52;;;-8.68;83.78
54554;BME280;40450;55.848;-3.572;2023-03-08T09:43:21;97526.48;;;-4.18;77.42
54554;BME280;40450;55.848;-3.572;2023-03-08T09:45:45;97531.21;;;-7.03;79.86
54554;BME280;40450;55.848;-3.572;2023-03-08T09:48:19;97524.75;;;-4.78;77.37
54554;BME280;40450;55.848;-3.572;2023-03-08T09:50:48;97523.05;;;-2.74;74.47
54554;BME280;40450;55.848;-3.572;2023-03-08T09:53:22;97522.01;;;-2.46;75.07
54554;BME280;40450;55.848;-3.572;2023-03-08T09:55:51;97522.62;;;-1.83;72.87
54554;BME280;40450;55.848;-3.572;2023-03-08T09:58:26;97523.98;;;-3.17;76.04
54554;BME280;40450;55.848;-3.572;2023-03-08T10:00:50;97524.73;;;-3.74;75.79
54554;BME280;40450;55.848;-3.572;2023-03-08T10:03:30;97521.68;;;-3.53;76.19
54554;BME280;40450;55.848;-3.572;2023-03-08T10:05:54;97527.52;;;-6.59;84.24
54554;BME280;40450;55.848;-3.572;2023-03-08T10:08:24;97532.06;;;-8.20;87.16
54554;BME280;40450;55.848;-3.572;2023-03-08T10:10:57;97528.69;;;-5.71;83.61
54554;BME280;40450;55.848;-3.572;2023-03-08T10:13:28;97534.81;;;-8.21;86.98
54554;BME280;40450;55.848;-3.572;2023-03-08T10:15:57;97532.58;;;-5.60;83.77
54554;BME280;40450;55.848;-3.572;2023-03-08T10:18:28;97537.53;;;-8.14;89.19
54554;BME280;40450;55.848;-3.572;2023-03-08T10:20:54;97531.67;;;-4.94;83.10
54554;BME280;40450;55.848;-3.572;2023-03-08T10:23:26;97526.39;;;-6.12;84.07
54554;BME280;40450;55.848;-3.572;2023-03-08T10:25:55;97527.75;;;-6.18;83.72
54554;BME280;40450;55.848;-3.572;2023-03-08T10:28:25;97535.19;;;-7.52;86.67
54554;BME280;40450;55.848;-3.572;2023-03-08T10:30:58;97530.44;;;-7.89;87.98
54554;BME280;40450;55.848;-3.572;2023-03-08T10:33:30;97525.09;;;-8.04;88.64
54554;BME280;40450;55.848;-3.572;2023-03-08T10:35:59;97512.54;;;-5.38;84.59
54554;BME280;40450;55.848;-3.572;2023-03-08T10:38:28;97507.52;;;-6.09;85.54
54554;BME280;40450;55.848;-3.572;2023-03-08T10:41:00;97515.28;;;-9.62;91.45
54554;BME280;40450;55.848;-3.572;2023-03-08T10:43:30;97517.50;;;-7.39;88.60
54554;BME280;40450;55.848;-3.572;2023-03-08T10:46:01;97517.68;;;-7.41;89.04
54554;BME280;40450;55.848;-3.572;2023-03-08T10:48:29;97509.98;;;-6.57;88.13
54554;BME280;40450;55.848;-3.572;2023-03-08T10:51:01;97510.37;;;-6.72;87.74
54554;BME280;40450;55.848;-3.572;2023-03-08T10:53:31;97515.80;;;-7.60;89.23
54554;BME280;40450;55.848;-3.572;2023-03-08T10:56:01;97512.09;;;-7.82;91.46
54554;BME280;40450;55.848;-3.572;2023-03-08T10:58:33;97516.41;;;-8.73;93.17
54554;BME280;40450;55.848;-3.572;2023-03-08T11:01:04;97512.65;;;-6.78;88.37
54554;BME280;40450;55.848;-3.572;2023-03-08T11:03:32;97506.63;;;-5.41;85.30
54554;BME280;40450;55.848;-3.572;2023-03-08T11:06:05;97514.72;;;-8.00;89.69
54554;BME280;40450;55.848;-3.572;2023-03-08T11:08:34;97507.53;;;-4.17;84.36
54554;BME280;40450;55.848;-3.572;2023-03-08T11:11:08;97517.37;;;-7.77;88.72
54554;BME280;40450;55.848;-3.572;2023-03-08T11:13:36;97507.98;;;-6.23;88.12
54554;BME280;40450;55.848;-3.572;2023-03-08T11:16:21;97514.67;;;-7.65;89.34
54554;BME280;40450;55.848;-3.572;2023-03-08T11:18:47;97511.49;;;-6.56;86.85
54554;BME280;40450;55.848;-3.572;2023-03-08T11:21:12;97518.31;;;-7.90;89.20
54554;BME280;40450;55.848;-3.572;2023-03-08T11:23:41;97507.03;;;-6.25;87.09
54554;BME280;40450;55.848;-3.572;2023-03-08T11:26:12;97511.86;;;-8.15;88.43
54554;BME280;40450;55.848;-3.572;2023-03-08T11:28:48;97511.53;;;-7.13;85.13
54554;BME280;40450;55.848;-3.572;2023-03-08T11:31:14;97510.98;;;-7.75;86.80
54554;BME280;40450;55.848;-3.572;2023-03-08T11:33:56;97504.54;;;-6.87;85.34
54554;BME280;40450;55.848;-3.572;2023-03-08T11:36:13;97498.75;;;-4.54;79.87
54554;BME280;40450;55.848;-3.572;2023-03-08T11:38:40;97503.80;;;-6.97;85.10
54554;BME280;40450;55.848;-3.572;2023-03-08T11:41:17;97507.93;;;-7.28;86.15
54554;BME280;40450;55.848;-3.572;2023-03-08T11:43:50;97511.80;;;-7.67;86.27
54554;BME280;40450;55.848;-3.572;2023-03-08T11:46:15;97501.77;;;-6.77;82.38
54554;BME280;40450;55.848;-3.572;2023-03-08T11:48:52;97499.66;;;-7.06;83.58
54554;BME280;40450;55.848;-3.572;2023-03-08T11:51:18;97488.38;;;-3.24;81.57
54554;BME280;40450;55.848;-3.572;2023-03-08T11:53:53;97491.56;;;-4.25;77.57
54554;BME280;40450;55.848;-3.572;2023-03-08T11:56:26;97494.23;;;-6.23;79.44
54554;BME280;40450;55.848;-3.572;2023-03-08T11:58:47;97497.18;;;-7.40;82.19
54554;BME280;40450;55.848;-3.572;2023-03-08T12:01:18;97492.74;;;-8.33;82.32
54554;BME280;40450;55.848;-3.572;2023-03-08T12:03:48;97487.14;;;-4.27;77.39
54554;BME280;40450;55.848;-3.572;2023-03-08T12:06:20;97487.76;;;-5.19;75.70
54554;BME280;40450;55.848;-3.572;2023-03-08T12:08:49;97487.96;;;-6.09;79.14
54554;BME280;40450;55.848;-3.572;2023-03-08T12:11:19;97493.33;;;-7.42;81.16
54554;BME280;40450;55.848;-3.572;2023-03-08T12:13:50;97484.68;;;-4.03;78.68
54554;BME280;40450;55.848;-3.572;2023-03-08T12:16:22;97492.55;;;-6.53;80.26
54554;BME280;40450;55.848;-3.572;2023-03-08T12:18:53;97490.53;;;-4.30;74.29
54554;BME280;40450;55.848;-3.572;2023-03-08T12:21:27;97483.01;;;-0.96;72.36
54554;BME280;40450;55.848;-3.572;2023-03-08T12:23:57;97483.52;;;-2.45;72.77
54554;BME280;40450;55.848;-3.572;2023-03-08T12:26:24;97489.61;;;-2.56;73.39
54554;BME280;40450;55.848;-3.572;2023-03-08T12:28:54;97489.82;;;-4.15;76.00
54554;BME280;40450;55.848;-3.572;2023-03-08T12:31:24;97490.96;;;-5.80;77.00
54554;BME280;40450;55.848;-3.572;2023-03-08T12:33:51;97492.15;;;-4.44;76.35
54554;BME280;40450;55.848;-3.572;2023-03-08T12:38:52;97484.26;;;-2.30;71.86
54554;BME280;40450;55.848;-3.572;2023-03-08T12:41:25;97485.73;;;-7.12;80.78
54554;BME280;40450;55.848;-3.572;2023-03-08T12:43:58;97481.85;;;-2.77;74.58
54554;BME280;40450;55.848;-3.572;2023-03-08T12:46:23;97482.70;;;-5.45;75.65
54554;BME280;40450;55.848;-3.572;2023-03-08T12:48:56;97492.41;;;-6.70;80.41
54554;BME280;40450;55.848;-3.572;2023-03-08T12:51:31;97496.53;;;-8.09;83.65
54554;BME280;40450;55.848;-3.572;2023-03-08T12:53:59;97490.96;;;-7.12;80.18
54554;BME280;40450;55.848;-3.572;2023-03-08T12:56:30;97480.31;;;-3.92;77.18
54554;BME280;40450;55.848;-3.572;2023-03-08T12:58:57;97483.77;;;-6.11;79.00
54554;BME280;40450;55.848;-3.572;2023-03-08T13:01:31;97481.25;;;-4.35;76.44
54554;BME280;40450;55.848;-3.572;2023-03-08T13:03:57;97476.91;;;-3.07;71.13
54554;BME280;40450;55.848;-3.572;2023-03-08T13:09:03;97482.54;;;-3.64;73.45
54554;BME280;40450;55.848;-3.572;2023-03-08T13:11:37;97479.94;;;-1.23;70.62
54554;BME280;40450;55.848;-3.572;2023-03-08T13:13:59;97478.83;;;-2.55;70.63